Flugplatz Nienburg-Holzbalge

Für EDXI sind keine METAR/TAF Berichte vorhanden.
Es werden die Flugwettermeldungen vom Flugplatz Wunstorf Airport in 33 km Entfernung angezeigt.

Bericht für ETNW

vom 23.02. um 23:20 UTC

Wind 15 kt aus 290°

Sichtweite 10 km oder mehr

gering bewölkt in 4000 ft

Temperatur 5.0°C

Taupunkt 1.0°C

Luftfeuchtigkeit 75%

Luftdruck 1018 hPa

ETNW 232320Z 29015KT 9999 FEW040 05/01 Q1018 BLU+

Prognose für ETNW

vom 23.02. um 00:00 UTC

Zwischen 00:00 UTC und 00:00 UTC

Wind 20 kt aus 270° in Böen 35 kt

Sichtweite 10 km oder mehr

keine signifikanten Wettererscheinungen

aufgelockert bewölkt in 1000 ft

aufgebrochene Bewölkung in 2500 ft


Zwischen 00:00 und 00:00 UTC übergehend zu

Wind 10 kt aus 190° in Böen 20 kt

Sichtweite 8000 m

keine signifikanten Wettererscheinungen

aufgelockert bewölkt in 1500 ft

aufgebrochene Bewölkung in 3000 ft


Zwischen 00:00 und 00:00 UTC übergehend zu

Wind 12 kt aus 200°

Sichtweite 8000 m

keine signifikanten Wettererscheinungen

aufgelockert bewölkt in 1000 ft

aufgebrochene Bewölkung in 2000 ft


Zwischen 00:00 UTC und 00:00 UTC zeitweise

Wind 15 kt aus 180° in Böen 25 kt

Sichtweite 4000 m

Regen

Sprühregen

aufgelockert bewölkt in 500 ft

aufgebrochene Bewölkung in 700 ft

TAF ETNW 232300Z 2400/2424 27020G35KT 9999 NSW SCT010 BKN025 BECMG 2408/2410 19010G20KT 8000 NSW SCT015 BKN030 BECMG 2410/2412 20012KT 8000 NSW SCT010 BKN020 TEMPO 2412/2419 18015G25KT 4000 RADZ SCT005 BKN007 BY ETGL
Impressum